createdAt,value
2019-04-23T00:03:51.543Z,55.80
2019-04-23T00:06:28.782Z,56.00
2019-04-23T00:09:07.287Z,55.80
2019-04-23T00:14:05.754Z,56.10
2019-04-23T00:16:30.248Z,56.30
2019-04-23T00:18:56.075Z,56.30
2019-04-23T00:21:40.534Z,56.20
2019-04-23T00:24:17.509Z,56.30
2019-04-23T00:26:42.594Z,56.20
2019-04-23T00:29:18.700Z,56.20
2019-04-23T00:31:43.205Z,56.40
2019-04-23T00:34:16.069Z,56.70
2019-04-23T00:36:44.166Z,56.40
2019-04-23T00:39:15.399Z,56.70
2019-04-23T00:41:54.584Z,56.80
2019-04-23T00:44:22.947Z,57.10
2019-04-23T00:46:48.990Z,56.80
2019-04-23T00:51:50.072Z,56.60
2019-04-23T00:54:27.409Z,56.70
2019-04-23T00:59:33.209Z,56.80
2019-04-23T01:02:02.721Z,56.70
2019-04-23T01:04:32.890Z,57.10
2019-04-23T01:06:58.305Z,56.50
2019-04-23T01:09:38.673Z,56.30
2019-04-23T01:12:10.790Z,56.40
2019-04-23T01:14:32.518Z,56.30
2019-04-23T01:17:08.507Z,56.40
2019-04-23T01:19:43.847Z,56.50
2019-04-23T01:22:00.142Z,56.50
2019-04-23T01:24:48.824Z,56.60
2019-04-23T01:30:17.918Z,56.50
2019-04-23T01:32:51.915Z,56.60
2019-04-23T01:35:20.387Z,56.50
2019-04-23T01:37:47.743Z,56.50
2019-04-23T01:40:27.303Z,56.60
2019-04-23T01:43:10.806Z,56.70
2019-04-23T01:45:32.701Z,56.60
2019-04-23T01:50:43.746Z,56.80
2019-04-23T01:53:02.860Z,56.60
2019-04-23T01:58:21.443Z,56.70
2019-04-23T02:03:12.947Z,56.80
2019-04-23T02:05:41.539Z,57.00
2019-04-23T02:08:08.071Z,56.70
2019-04-23T02:10:51.341Z,57.10
2019-04-23T02:15:47.716Z,56.80
2019-04-23T02:18:17.942Z,56.80
2019-04-23T02:21:04.644Z,56.90
2019-04-23T02:23:44.310Z,57.10
2019-04-23T02:26:18.310Z,56.50
2019-04-23T02:36:29.228Z,56.50
2019-04-23T02:41:41.383Z,56.20
2019-04-23T02:44:09.124Z,56.30
2019-04-23T02:46:25.014Z,56.20
2019-04-23T02:49:07.179Z,56.10
2019-04-23T02:56:49.321Z,55.90
2019-04-23T02:59:10.283Z,55.90
2019-04-23T03:01:36.043Z,56.20
2019-04-23T03:09:13.388Z,56.70
2019-04-23T03:16:54.762Z,57.10
2019-04-23T03:19:32.289Z,56.70
2019-04-23T03:24:45.769Z,57.20
2019-04-23T03:45:07.538Z,57.90
2019-04-23T03:50:02.184Z,59.00
2019-04-23T03:54:54.362Z,58.30
2019-04-23T03:57:24.762Z,59.40
2019-04-23T04:00:15.055Z,59.10
2019-04-23T04:05:20.543Z,58.40
2019-04-23T04:07:47.000Z,58.60
2019-04-23T04:09:51.813Z,58.40
2019-04-23T04:12:35.672Z,58.60
2019-04-23T04:17:33.146Z,58.70
2019-04-23T04:20:07.481Z,58.70
2019-04-23T04:25:06.689Z,58.80
2019-04-23T04:27:45.677Z,59.00
2019-04-23T04:35:20.594Z,59.40
2019-04-23T04:42:42.389Z,59.60
2019-04-23T04:45:22.827Z,59.80
2019-04-23T05:00:38.701Z,60.10
2019-04-23T05:05:55.363Z,60.70
2019-04-23T05:07:54.743Z,60.50
2019-04-23T05:13:03.422Z,60.50
2019-04-23T05:15:23.487Z,60.70
2019-04-23T05:18:23.987Z,60.80
2019-04-23T05:23:16.448Z,61.60
2019-04-23T05:25:37.817Z,61.70
2019-04-23T05:28:12.581Z,61.10
2019-04-23T05:30:44.552Z,61.80
2019-04-23T05:33:18.624Z,61.20
2019-04-23T05:36:08.924Z,61.70
2019-04-23T05:43:19.096Z,62.60
2019-04-23T05:45:53.116Z,62.30
2019-04-23T05:48:28.671Z,62.50
2019-04-23T05:55:55.444Z,62.00
2019-04-23T05:58:28.697Z,62.00
2019-04-23T06:01:19.988Z,61.70
2019-04-23T06:03:44.363Z,61.80
2019-04-23T06:06:14.373Z,61.90
2019-04-23T06:08:49.682Z,62.00
2019-04-23T06:11:25.990Z,61.90
2019-04-23T06:13:55.146Z,61.60
2019-04-23T06:16:22.149Z,61.50
2019-04-23T06:18:57.638Z,62.20
2019-04-23T06:21:23.982Z,61.60
2019-04-23T06:23:55.597Z,61.20
2019-04-23T06:26:32.924Z,61.10
2019-04-23T06:28:58.799Z,61.30
2019-04-23T06:33:59.222Z,61.00
2019-04-23T06:36:26.034Z,60.50
2019-04-23T06:39:06.908Z,61.10
2019-04-23T06:41:29.129Z,59.80
2019-04-23T06:44:11.561Z,61.30
2019-04-23T06:46:39.876Z,61.10
2019-04-23T06:49:02.366Z,61.40
2019-04-23T06:54:03.361Z,61.10
2019-04-23T06:56:43.512Z,61.10
2019-04-23T06:59:12.996Z,60.80
2019-04-23T07:01:51.060Z,60.80
2019-04-23T07:04:15.252Z,60.50
2019-04-23T07:06:47.143Z,61.00
2019-04-23T07:11:39.160Z,61.70
2019-04-23T07:14:02.377Z,61.40
2019-04-23T07:16:48.373Z,62.10
2019-04-23T07:21:50.833Z,61.20
2019-04-23T07:24:16.889Z,61.50
2019-04-23T07:26:41.859Z,61.10
2019-04-23T07:29:25.810Z,61.00
2019-04-23T07:31:54.595Z,60.80
2019-04-23T07:34:23.187Z,60.40
2019-04-23T07:36:54.004Z,60.00
2019-04-23T07:40:06.200Z,60.70
2019-04-23T07:42:24.825Z,59.80
2019-04-23T07:47:41.827Z,60.40
2019-04-23T07:50:23.337Z,59.80
2019-04-23T07:52:54.183Z,59.20
2019-04-23T07:55:29.697Z,59.40
2019-04-23T07:57:52.106Z,59.40
2019-04-23T08:00:29.633Z,60.50
2019-04-23T08:03:01.155Z,59.30
2019-04-23T08:07:57.148Z,59.40
2019-04-23T08:10:29.728Z,59.50
2019-04-23T08:12:59.579Z,58.90
2019-04-23T08:15:28.088Z,57.10
2019-04-23T08:17:58.557Z,56.30
2019-04-23T08:20:35.083Z,56.30
2019-04-23T08:23:12.628Z,56.30
2019-04-23T08:25:45.374Z,56.70
2019-04-23T08:28:23.025Z,56.40
2019-04-23T08:30:49.587Z,56.40
2019-04-23T08:33:17.452Z,56.90
2019-04-23T08:35:54.271Z,56.70
2019-04-23T08:38:26.598Z,55.80
2019-04-23T08:40:57.184Z,55.80
2019-04-23T08:46:07.900Z,55.10
2019-04-23T08:48:34.609Z,54.70
2019-04-23T08:51:24.107Z,54.60
2019-04-23T08:56:08.775Z,54.60
2019-04-23T08:58:36.861Z,55.10
2019-04-23T09:01:09.564Z,55.40
2019-04-23T09:03:51.281Z,55.20
2019-04-23T09:06:13.922Z,55.10
2019-04-23T09:08:43.754Z,55.00
2019-04-23T09:11:30.761Z,54.40
2019-04-23T09:13:53.493Z,54.30
2019-04-23T09:16:18.009Z,54.00
2019-04-23T09:18:45.998Z,53.80
2019-04-23T09:21:25.729Z,53.40
2019-04-23T09:23:54.427Z,52.50
2019-04-23T09:26:11.021Z,52.90
2019-04-23T09:28:53.293Z,52.80
2019-04-23T09:34:09.686Z,52.30
2019-04-23T09:37:00.335Z,52.50
2019-04-23T09:39:28.873Z,50.90
2019-04-23T09:42:08.755Z,53.00
2019-04-23T09:47:30.045Z,52.90
2019-04-23T09:50:01.209Z,51.70
2019-04-23T09:52:33.021Z,51.90
2019-04-23T09:55:11.714Z,50.90
2019-04-23T09:57:33.878Z,50.80
2019-04-23T10:00:10.658Z,50.10
2019-04-23T10:02:28.240Z,50.20
2019-04-23T10:04:57.407Z,50.20
2019-04-23T10:07:25.103Z,49.70
2019-04-23T10:09:42.510Z,50.90
2019-04-23T10:12:13.181Z,49.80
2019-04-23T10:14:53.903Z,50.20
2019-04-23T10:17:15.905Z,50.60
2019-04-23T10:19:46.664Z,50.40
2019-04-23T10:22:17.307Z,50.30
2019-04-23T10:24:46.882Z,50.30
2019-04-23T10:27:16.993Z,50.30
2019-04-23T10:29:47.875Z,50.30
2019-04-23T10:32:17.742Z,50.20
2019-04-23T10:35:00.788Z,50.00
2019-04-23T10:37:31.438Z,50.60
2019-04-23T10:39:54.915Z,50.00
2019-04-23T10:42:21.925Z,50.30
2019-04-23T10:45:16.194Z,49.70
2019-04-23T10:48:21.708Z,49.10
2019-04-23T10:53:29.896Z,50.20
2019-04-23T10:56:21.381Z,49.50
2019-04-23T10:58:31.465Z,49.30
2019-04-23T11:01:09.821Z,48.90
2019-04-23T11:06:16.873Z,50.00
2019-04-23T11:08:37.024Z,49.80
2019-04-23T11:13:45.318Z,49.10
2019-04-23T11:16:39.930Z,49.40
2019-04-23T11:18:52.079Z,48.70
2019-04-23T11:21:24.074Z,49.40
2019-04-23T11:26:21.834Z,49.20
2019-04-23T11:28:44.224Z,49.20
2019-04-23T11:31:31.165Z,49.00
2019-04-23T11:34:01.685Z,49.00
2019-04-23T11:43:58.899Z,48.40
2019-04-23T11:54:05.855Z,48.20
2019-04-23T11:57:05.988Z,48.80
2019-04-23T11:59:12.264Z,48.90
2019-04-23T12:04:26.515Z,48.40
2019-04-23T12:07:00.708Z,48.20
2019-04-23T12:09:47.841Z,48.10
2019-04-23T12:12:17.310Z,48.40
2019-04-23T12:14:48.036Z,46.40
2019-04-23T12:22:39.005Z,45.30
2019-04-23T12:30:20.185Z,46.10
2019-04-23T12:35:16.144Z,46.30
2019-04-23T12:42:55.192Z,44.60
2019-04-23T12:48:09.781Z,44.90
2019-04-23T12:50:41.845Z,45.50
2019-04-23T12:52:51.038Z,45.00
2019-04-23T12:58:11.221Z,44.90
2019-04-23T13:00:25.733Z,44.70
2019-04-23T13:15:34.618Z,44.30
2019-04-23T13:18:06.778Z,44.50
2019-04-23T13:20:36.871Z,45.20
2019-04-23T13:23:16.472Z,44.50
2019-04-23T13:25:47.351Z,44.60
2019-04-23T13:28:16.471Z,45.40
2019-04-23T13:33:31.890Z,44.30
2019-04-23T13:36:14.505Z,44.50
2019-04-23T13:41:01.127Z,43.20
2019-04-23T13:43:40.770Z,43.20
2019-04-23T13:48:23.324Z,42.00
2019-04-23T13:52:12.783Z,41.90
2019-04-23T13:56:06.224Z,43.70
2019-04-23T13:58:38.779Z,41.60
2019-04-23T14:01:23.513Z,43.30
2019-04-23T14:03:40.815Z,43.90
2019-04-23T14:08:48.617Z,43.20
2019-04-23T14:13:49.859Z,41.20
2019-04-23T14:21:20.434Z,42.30
2019-04-23T14:24:03.371Z,42.20
2019-04-23T14:28:44.652Z,41.90
2019-04-23T14:31:16.665Z,41.40
2019-04-23T14:34:00.178Z,41.50
2019-04-23T14:38:58.003Z,40.80
2019-04-23T14:46:41.288Z,40.30
2019-04-23T14:49:07.209Z,40.00
2019-04-23T14:54:13.392Z,40.40
2019-04-23T14:56:45.052Z,41.80
2019-04-23T14:59:10.446Z,40.90
2019-04-23T15:01:47.693Z,40.60
2019-04-23T15:04:10.947Z,40.10
2019-04-23T15:06:50.779Z,40.50
2019-04-23T15:09:22.957Z,40.30
2019-04-23T15:11:59.705Z,41.80
2019-04-23T15:14:17.767Z,39.60
2019-04-23T15:16:54.791Z,39.80
2019-04-23T15:19:37.923Z,41.60
2019-04-23T15:29:12.991Z,40.00
2019-04-23T15:32:04.410Z,39.20
2019-04-23T15:34:51.929Z,39.70
2019-04-23T15:37:20.340Z,39.00
2019-04-23T15:42:12.602Z,40.50
2019-04-23T15:44:46.455Z,40.40
2019-04-23T15:49:45.034Z,39.30
2019-04-23T15:52:14.324Z,40.20
2019-04-23T15:54:47.193Z,40.20
2019-04-23T15:57:28.413Z,40.40
2019-04-23T16:00:05.229Z,41.70
2019-04-23T16:02:08.837Z,40.80
2019-04-23T16:04:39.839Z,40.50
2019-04-23T16:07:10.545Z,40.10
2019-04-23T16:12:42.252Z,40.30
2019-04-23T16:17:41.906Z,39.50
2019-04-23T16:20:33.277Z,40.40
2019-04-23T16:22:52.829Z,39.40
2019-04-23T16:25:22.250Z,40.10
2019-04-23T16:28:03.258Z,39.20
2019-04-23T16:36:00.886Z,40.10
2019-04-23T16:38:34.209Z,40.40
2019-04-23T16:43:40.912Z,39.60
2019-04-23T16:51:11.099Z,40.30
2019-04-23T16:53:27.560Z,40.80
2019-04-23T16:56:04.992Z,39.60
2019-04-23T16:58:33.648Z,38.70
2019-04-23T17:01:08.671Z,39.10
2019-04-23T17:03:31.265Z,38.50
2019-04-23T17:06:15.886Z,38.20
2019-04-23T17:13:37.817Z,37.20
2019-04-23T17:16:15.307Z,38.20
2019-04-23T17:18:47.112Z,38.90
2019-04-23T17:21:16.648Z,38.90
2019-04-23T17:24:08.063Z,39.30
2019-04-23T17:26:24.530Z,39.80
2019-04-23T17:28:44.202Z,40.20
2019-04-23T17:34:11.162Z,40.40
2019-04-23T17:36:28.502Z,40.20
2019-04-23T17:39:04.005Z,40.90
2019-04-23T17:41:41.784Z,39.50
2019-04-23T17:44:21.320Z,39.40
2019-04-23T17:49:12.406Z,39.80
2019-04-23T17:51:42.235Z,39.70
2019-04-23T17:56:55.933Z,39.20
2019-04-23T17:59:27.785Z,40.50
2019-04-23T18:01:57.081Z,43.20
2019-04-23T18:04:23.431Z,41.70
2019-04-23T18:06:53.883Z,42.00
2019-04-23T18:11:53.967Z,42.90
2019-04-23T18:14:30.956Z,43.10
2019-04-23T18:19:30.562Z,44.30
2019-04-23T18:22:19.149Z,44.70
2019-04-23T18:27:48.256Z,45.00
2019-04-23T18:30:47.465Z,45.80
2019-04-23T18:35:28.272Z,46.50
2019-04-23T18:40:54.567Z,47.10
2019-04-23T18:43:21.100Z,47.50
2019-04-23T18:45:46.752Z,47.80
2019-04-23T18:48:38.890Z,48.10
2019-04-23T18:51:03.486Z,48.60
2019-04-23T18:56:06.928Z,49.10
2019-04-23T18:58:54.697Z,49.30
2019-04-23T19:01:27.890Z,49.80
2019-04-23T19:04:00.314Z,50.00
2019-04-23T19:09:03.122Z,50.80
2019-04-23T19:14:38.935Z,51.40
2019-04-23T19:17:08.979Z,51.70
2019-04-23T19:19:28.853Z,51.20
2019-04-23T19:24:27.841Z,52.40
2019-04-23T19:27:13.688Z,52.40
2019-04-23T19:29:40.232Z,52.50
2019-04-23T19:34:36.296Z,53.20
2019-04-23T19:37:11.106Z,54.10
2019-04-23T19:47:09.571Z,55.10
2019-04-23T19:49:58.923Z,55.90
2019-04-23T19:52:35.040Z,56.10
2019-04-23T19:57:13.546Z,56.70
2019-04-23T20:00:02.714Z,56.60
2019-04-23T20:02:27.109Z,57.20
2019-04-23T20:07:20.034Z,57.90
2019-04-23T20:09:51.733Z,59.00
2019-04-23T20:12:25.408Z,57.80
2019-04-23T20:14:52.268Z,58.10
2019-04-23T20:25:18.889Z,58.70
2019-04-23T20:27:26.474Z,59.30
2019-04-23T20:33:33.612Z,59.40
2019-04-23T20:35:18.133Z,59.50
2019-04-23T20:38:17.277Z,60.30
2019-04-23T20:40:30.536Z,60.30
2019-04-23T20:42:57.906Z,61.10
2019-04-23T20:45:27.635Z,61.20
2019-04-23T20:48:00.726Z,62.10
2019-04-23T20:50:31.512Z,62.10
2019-04-23T20:52:59.927Z,62.50
2019-04-23T20:55:49.742Z,64.60
2019-04-23T20:58:21.212Z,64.60
2019-04-23T21:01:18.323Z,64.40
2019-04-23T21:06:10.208Z,66.90
2019-04-23T21:11:08.822Z,66.30
2019-04-23T21:16:14.983Z,65.90
2019-04-23T21:18:44.246Z,66.10
2019-04-23T21:21:20.260Z,66.30
2019-04-23T21:23:51.029Z,66.60
2019-04-23T21:26:07.883Z,66.90
2019-04-23T21:28:54.117Z,68.50
2019-04-23T21:31:22.727Z,68.10
2019-04-23T21:34:03.231Z,68.10
2019-04-23T21:36:34.443Z,68.50
2019-04-23T21:46:52.639Z,70.10
2019-04-23T21:49:27.190Z,70.40
2019-04-23T21:54:13.230Z,70.60
2019-04-23T21:56:53.442Z,71.10
2019-04-23T21:59:22.787Z,71.80
2019-04-23T22:01:54.163Z,71.40
2019-04-23T22:06:54.148Z,71.60
2019-04-23T22:12:05.212Z,72.80
2019-04-23T22:14:34.170Z,73.00
2019-04-23T22:20:27.768Z,73.30
2019-04-23T22:25:13.451Z,72.90
2019-04-23T22:27:54.539Z,73.20
2019-04-23T22:30:22.738Z,73.40
2019-04-23T22:33:07.170Z,73.70
2019-04-23T22:35:22.021Z,73.30
2019-04-23T22:38:09.572Z,73.50
2019-04-23T22:40:25.379Z,74.10
2019-04-23T22:45:28.243Z,74.20
2019-04-23T22:50:27.985Z,74.70
2019-04-23T22:53:04.315Z,74.60
2019-04-23T22:55:40.596Z,74.60
2019-04-23T23:00:41.650Z,75.20
2019-04-23T23:08:24.917Z,76.80
2019-04-23T23:13:28.419Z,77.10
2019-04-23T23:16:01.345Z,77.00
2019-04-23T23:18:31.005Z,77.30
2019-04-23T23:27:05.615Z,77.70
2019-04-23T23:29:49.400Z,78.10
2019-04-23T23:32:16.693Z,78.50
2019-04-23T23:35:02.631Z,78.80
2019-04-23T23:37:12.083Z,79.20
2019-04-23T23:39:49.358Z,80.00
2019-04-23T23:42:16.223Z,80.60
2019-04-23T23:44:59.344Z,80.60
2019-04-23T23:47:18.195Z,80.90
2019-04-23T23:50:00.980Z,81.40
2019-04-23T23:52:34.562Z,81.80
2019-04-23T23:55:03.787Z,82.80
